Ketchum, Oklahoma
Current Conditions -  °F | °C
As of 11:55 AM on Friday 21 Nov 2014 (Local Time) from KGMJ Reporting Station
Overcast Overcast  
Wind Chill: 59°   Ceiling: 1800
Heat Index: 59°   Visibility: 10mi
Dew Point: 48°   Wind: 10mph
Humidity: 67%   Direction: 140°SE
Pressure: 30.16"   Gusts: 16mph
Location:  36.52°N, 95.02°W
Report Text: KGMJ 211755Z AUTO 14009G14KT 10SM OVC018 15/09 A3016 RMK AO2
Loading
Personal Weather Stations






























Interactive Weather Map New forecast layout! Learn more

10-Day Weather Forecast

Advertisements
Track Severe Weather on mobile